Foxfield, Colorado
Current Conditions -  °F | °C
As of 4:58 PM on Friday 28 Nov 2014 (Local Time) from KBKF Reporting Station
Broken Clouds Broken Clouds  
Wind Chill: 58°   Ceiling: 20000
Heat Index: 58°   Visibility: 10mi
Dew Point: 14°   Wind: 3mph
Humidity: 18%   Direction: 180°S
Pressure: 29.84"   Gusts: NA
Location:  39.6109°N, 104.687°W
Report Text: KBKF 282358Z 18003KT 10SM BKN200 15/M10 A2984 RMK AO2A SLP060 T01451099 10197 20129 55006
Loading
Personal Weather Stations






























Interactive Weather Map New forecast layout! Learn more

10-Day Weather Forecast

Advertisements
Track Severe Weather on mobile